الصفحة الرئيسية
METAR-TAF:

METAR-TAF

مطار :

ييكاتيرينبرغ, روسيا

دائرة عرض: 56-50N, خط طول: 060-38E, ارتفاع: 237 متر

مراقبة الطقس الحالي

تاريخ ووقت الإصدار 49 دقيقة قبل الساعة 06:30UTC
ريح 4 عقدة من الشمال, الاتجاه يتراوح بين الشمال/الشمال الغربي و الشمال الشرقي
درجة الحرارة -17°درجة مئوية
الرطوبة 84%
ضغط 1032 hPa
الرؤية 10 كم أو أكثر
غيوم متفرقة على ارتفاع 1500 قدم

METAR: USSS 190630Z 36002MPS 340V040 9999 SCT015 M17/M19 Q1032 R26R/450237 NOSIG RMK QFE753/1004

زمن: 12:19 (07:19 UTC)

توقعات

تاريخ ووقت الإصدار 2ساعات و 24 دقيقة قبل الساعة 04:55UTC
التوقعات صالحة من19 الساعة 06 UTC إلى 20 الساعة 06 UTC
ريح 6 عقدة من الشمال الشرقي
الرؤية: 5000 متر
غيوم مفككة على ارتفاع 1100 قدم
ثلوج خفيفة, غشاء
مؤقت
من 19 الساعة 06 UTC إلى 19 الساعة 10 UTC
الرؤية: 2100 متر
ثلوج خفيفة, غشاء
أصبح
من 19 الساعة 10 UTC إلى 19 الساعة 12 UTC
الرؤية: 3100 متر
غيوم متفرقة على ارتفاع 1100 قدم
غشاء

TAF: USSS 190455Z 1906/2006 04003MPS 5000 -SN BR BKN011 TEMPO 1906/1910 2100 -SN BR BECMG 1910/1912 3100 BR SCT011

أرصاد الطقس والتوقعات من أكثر من 4000 مطار (تقارير الطقس للمطار METAR والتنبؤ بالطقس بالمطارTAF).

المحطات المتاحة هي النقط الصفراء والحمراء على الخريطة.

حرك المؤشر فوق النقطة لمعرفة اسم المحطة.

ثم انقر لمعرفة أرصاد وتوقعات الطقس.

لتغيير الخارطة: اضغط على الأزرار الخضراء مع رمز الصليب الأسود للتكبير. على الزر الأخضر مع شرطة للتصغير، أو على الأسهم الخضراء للخرائط المجاورة.


METAR-TAF: